Time;durP1;ratioP1;P1;durP2;ratioP2;P2;SDS_P1;SDS_P2;PMS_P1;PMS_P2;Temp;Humidity;BMP_temperature;BMP_pressure;BME280_temperature;BME280_humidity;BME280_pressure;Samples;Min_cycle;Max_cycle;Signal;HPM_P1;HPM_P2
2022/10/23 00:02:36;;;;;;;13.85;8.60;;;;;;;15.44;46.96;101519.88;5076198;27;20414;-60
2022/10/23 00:05:02;;;;;;;13.07;8.83;;;;;;;15.53;46.91;101527.81;5012460;28;20941;-61
2022/10/23 00:07:27;;;;;;;13.27;8.40;;;;;;;15.62;46.81;101522.19;5026615;28;20391;-61
2022/10/23 00:09:53;;;;;;;11.80;7.33;;;;;;;15.71;46.75;101520.28;5026811;28;20383;-61
2022/10/23 00:19:24;;;;;;;13.65;8.32;;;;;;;16.08;46.37;101539.94;5120570;27;20828;-61
2022/10/23 00:21:49;;;;;;;12.77;7.63;;;;;;;16.15;46.21;101540.84;5066266;28;20920;-61
2022/10/23 00:25:43;;;;;;;13.23;7.60;;;;;;;16.35;46.04;101534.88;5099239;27;992440;-60
2022/10/23 00:28:27;;;;;;;11.65;6.75;;;;;;;16.44;45.83;101541.81;5072536;27;20411;-61
2022/10/23 00:30:53;;;;;;;16.02;7.28;;;;;;;16.52;45.76;101532.84;5040253;28;20786;-61
2022/10/23 00:33:18;;;;;;;15.70;7.17;;;;;;;16.53;45.63;101518.41;5026899;28;20457;-61
2022/10/23 00:35:44;;;;;;;11.80;7.13;;;;;;;16.68;45.47;101529.09;5026288;28;21447;-61
2022/10/23 00:38:10;;;;;;;12.73;7.87;;;;;;;16.72;45.32;101523.16;5033630;28;20400;-60
2022/10/23 00:40:36;;;;;;;13.20;7.28;;;;;;;16.80;45.20;101531.06;5046535;28;20391;-59
2022/10/23 00:51:45;;;;;;;13.35;6.50;;;;;;;17.00;44.74;101530.47;5071009;27;20410;-60
2022/10/23 00:54:13;;;;;;;15.13;6.40;;;;;;;17.05;44.66;101532.56;5026927;28;20506;-60
2022/10/23 00:56:41;;;;;;;10.20;6.38;;;;;;;17.13;44.58;101535.94;5013313;28;20396;-61
2022/10/23 00:59:07;;;;;;;10.80;6.20;;;;;;;17.16;44.34;101540.06;5026585;28;20774;-61
2022/10/23 01:01:33;;;;;;;11.50;6.43;;;;;;;17.23;44.37;101542.81;5026836;28;20911;-61
2022/10/23 01:04:16;;;;;;;10.85;6.55;;;;;;;17.27;44.34;101538.69;5071348;27;20422;-61
2022/10/23 01:06:59;;;;;;;10.65;6.88;;;;;;;17.31;44.47;101542.69;5040384;28;20396;-61
2022/10/23 01:09:36;;;;;;;12.50;6.50;;;;;;;17.36;44.21;101543.75;5035631;28;20396;-60
2022/10/23 01:14:28;;;;;;;12.85;6.85;;;;;;;17.47;44.09;101557.66;5087864;27;20420;-61
2022/10/23 01:18:22;;;;;;;14.23;6.72;;;;;;;17.51;43.98;101543.63;5083529;27;20408;-61
2022/10/23 01:23:48;;;;;;;12.05;7.20;;;;;;;17.56;44.17;101546.56;5063891;27;20409;-60
2022/10/23 01:26:34;;;;;;;9.47;6.70;;;;;;;17.61;44.35;101545.13;5046685;28;20481;-60
2022/10/23 01:31:43;;;;;;;14.48;6.75;;;;;;;17.61;45.61;101537.09;5067444;27;20403;-60
2022/10/23 01:34:15;;;;;;;9.77;5.77;;;;;;;17.73;46.02;101551.63;5026961;28;20407;-61
2022/10/23 01:39:11;;;;;;;10.73;6.10;;;;;;;17.88;46.31;101556.88;5077787;27;20419;-61
2022/10/23 01:41:49;;;;;;;12.20;5.00;;;;;;;17.95;46.78;101560.44;5046525;28;20409;-61
2022/10/23 01:46:36;;;;;;;7.18;4.15;;;;;;;18.09;47.53;101575.56;5084285;27;20413;-61
2022/10/23 01:49:05;;;;;;;7.53;3.60;;;;;;;18.17;47.90;101584.47;5046552;28;20401;-60
2022/10/23 01:58:43;;;;;;;4.95;3.47;;;;;;;18.42;48.44;101577.59;5068827;27;20421;-60
2022/10/23 02:01:10;;;;;;;4.93;3.17;;;;;;;18.43;48.59;101565.00;5040303;28;20412;-60
2022/10/23 02:03:38;;;;;;;7.30;3.45;;;;;;;18.42;48.52;101569.53;5026657;28;20446;-60
2022/10/23 02:06:04;;;;;;;37.20;24.02;;;;;;;18.44;48.30;101564.78;5026983;28;20394;-60
2022/10/23 02:10:48;;;;;;;9.27;6.88;;;;;;;18.47;48.21;101567.06;5068831;27;20416;-58
2022/10/23 02:18:49;;;;;;;7.07;6.38;;;;;;;18.41;47.66;101578.63;5086806;27;20815;-60
2022/10/23 02:21:38;;;;;;;9.05;7.15;;;;;;;18.36;47.57;101572.19;5090735;27;20405;-61
2022/10/23 02:24:12;;;;;;;11.90;10.70;;;;;;;18.34;47.83;101580.44;5033435;28;20407;-61
2022/10/23 02:26:42;;;;;;;11.48;10.35;;;;;;;18.35;48.05;101579.44;5037766;28;20393;-60
2022/10/23 02:29:10;;;;;;;9.20;6.00;;;;;;;18.36;48.08;101591.81;5046411;28;20459;-61
2022/10/23 02:31:35;;;;;;;7.75;5.35;;;;;;;18.31;48.26;101596.94;5036876;28;20881;-61
2022/10/23 02:34:01;;;;;;;13.02;10.88;;;;;;;18.28;48.63;101594.69;5042241;28;20392;-61
2022/10/23 02:39:30;;;;;;;11.55;8.57;;;;;;;18.31;48.75;101605.84;5077824;27;20405;-60
2022/10/23 02:41:58;;;;;;;15.13;13.63;;;;;;;18.29;48.71;101613.28;5046618;28;20402;-61
2022/10/23 02:44:32;;;;;;;13.30;11.90;;;;;;;18.26;48.96;101610.97;5046565;28;20431;-60
2022/10/23 02:47:28;;;;;;;7.45;5.85;;;;;;;18.29;49.25;101626.69;5046439;28;20758;-61
2022/10/23 02:52:58;;;;;;;9.98;7.18;;;;;;;18.29;49.47;101618.63;5073054;27;20416;-61
2022/10/23 02:55:48;;;;;;;11.68;9.10;;;;;;;18.29;49.48;101609.72;5036595;28;20433;-60
2022/10/23 02:58:42;;;;;;;10.85;6.63;;;;;;;18.23;49.60;101611.38;5046262;28;20492;-61
2022/10/23 03:01:12;;;;;;;8.98;7.10;;;;;;;18.14;49.86;101612.56;5045994;28;20382;-61
2022/10/23 03:03:43;;;;;;;8.23;5.68;;;;;;;18.12;49.95;101625.34;5038982;28;20383;-60
2022/10/23 03:06:09;;;;;;;9.57;5.47;;;;;;;18.14;49.95;101629.47;5041203;28;20386;-60
2022/10/23 03:09:30;;;;;;;9.38;7.50;;;;;;;18.11;50.03;101626.38;5069231;27;20414;-60
2022/10/23 03:12:42;;;;;;;11.93;8.82;;;;;;;18.08;50.05;101632.97;5084846;27;20401;-61
2022/10/23 03:15:11;;;;;;;9.75;8.07;;;;;;;18.06;50.30;101635.03;5046509;28;20401;-61
2022/10/23 03:19:01;;;;;;;11.65;8.90;;;;;;;18.08;50.43;101649.06;5088774;27;20898;-60
2022/10/23 03:21:27;;;;;;;8.37;7.57;;;;;;;18.03;50.45;101656.88;5032458;28;20406;-60
2022/10/23 03:27:22;;;;;;;10.90;8.82;;;;;;;17.97;51.05;101663.03;5083041;27;20404;-61
2022/10/23 03:29:47;;;;;;;23.83;21.70;;;;;;;17.98;51.33;101667.34;5066478;28;20404;-62
2022/10/23 03:32:45;;;;;;;8.73;7.15;;;;;;;18.02;51.20;101679.34;5077391;27;20424;-60
2022/10/23 03:35:11;;;;;;;5.97;4.80;;;;;;;18.01;51.23;101683.06;5046838;28;20891;-61
2022/10/23 03:38:09;;;;;;;5.80;4.88;;;;;;;17.91;51.59;101686.06;5089319;27;20412;-61
2022/10/23 03:41:41;;;;;;;5.43;4.20;;;;;;;17.91;51.56;101690.63;5081599;27;20404;-60
2022/10/23 03:46:16;;;;;;;11.90;4.78;;;;;;;17.88;51.28;101697.22;5075158;27;20461;-62
2022/10/23 03:50:43;;;;;;;5.32;4.40;;;;;;;17.90;51.17;101710.44;5077280;27;20919;-61
2022/10/23 03:53:09;;;;;;;4.87;4.47;;;;;;;17.95;51.10;101716.88;5034873;28;20403;-60
2022/10/23 03:55:34;;;;;;;4.35;4.05;;;;;;;17.98;50.90;101712.97;5043982;28;20776;-60
2022/10/23 03:58:00;;;;;;;3.87;3.57;;;;;;;17.99;50.91;101725.38;5046659;28;20876;-60
2022/10/23 04:05:45;;;;;;;3.63;3.05;;;;;;;18.04;50.78;101722.94;5065262;27;20416;-60
2022/10/23 04:11:55;;;;;;;5.75;2.60;;;;;;;18.07;50.71;101710.97;5084019;27;20420;-61
2022/10/23 04:17:13;;;;;;;3.42;2.38;;;;;;;17.99;50.80;101713.78;5081796;27;20409;-61
2022/10/23 04:19:39;;;;;;;2.80;2.30;;;;;;;18.07;50.63;101710.97;5039601;28;20434;-61
2022/10/23 04:22:13;;;;;;;2.20;2.00;;;;;;;18.00;50.56;101713.59;5068087;27;20410;-62
2022/10/23 04:27:35;;;;;;;3.15;2.25;;;;;;;18.02;50.71;101733.00;5077855;27;20408;-61
2022/10/23 04:30:02;;;;;;;4.47;2.30;;;;;;;18.02;50.76;101749.09;5046861;28;20405;-61
2022/10/23 04:32:27;;;;;;;3.17;2.20;;;;;;;18.02;50.53;101750.97;5046113;28;20484;-61
2022/10/23 04:34:53;;;;;;;2.37;2.17;;;;;;;17.98;50.47;101763.09;5046856;28;20413;-61
2022/10/23 04:37:19;;;;;;;2.60;2.33;;;;;;;18.07;50.77;101773.50;5046196;28;20385;-61
2022/10/23 04:39:44;;;;;;;3.83;2.70;;;;;;;18.05;50.25;101780.91;5046618;28;20906;-61
2022/10/23 04:42:10;;;;;;;2.97;2.67;;;;;;;18.03;50.57;101779.47;5046295;28;20477;-62
2022/10/23 04:44:35;;;;;;;3.13;2.50;;;;;;;18.01;50.62;101776.16;5046013;28;20818;-61
2022/10/23 04:47:00;;;;;;;4.53;2.80;;;;;;;18.03;50.67;101763.38;5078373;28;20418;-60
2022/10/23 04:49:26;;;;;;;4.65;3.13;;;;;;;17.94;50.48;101762.66;5045979;28;20393;-60
2022/10/23 04:51:51;;;;;;;4.30;3.30;;;;;;;17.89;50.63;101755.19;5046363;28;20385;-61
2022/10/23 04:54:17;;;;;;;3.93;2.63;;;;;;;17.90;50.61;101751.50;5046105;28;20448;-61
2022/10/23 04:56:42;;;;;;;3.70;2.70;;;;;;;17.85;50.71;101747.69;5046117;28;20386;-60
2022/10/23 04:59:08;;;;;;;3.63;2.80;;;;;;;17.88;50.66;101740.13;5046603;28;20377;-60
2022/10/23 05:01:34;;;;;;;3.00;2.70;;;;;;;17.88;50.63;101747.31;5045718;28;20382;-60
2022/10/23 05:04:00;;;;;;;2.63;2.30;;;;;;;17.90;50.51;101742.63;5045969;28;20895;-60
2022/10/23 05:06:25;;;;;;;3.03;2.50;;;;;;;17.93;50.55;101751.13;5045721;28;20405;-61
2022/10/23 05:08:51;;;;;;;3.38;2.55;;;;;;;18.07;50.14;101752.03;5045855;28;20949;-60
2022/10/23 05:12:58;;;;;;;2.97;2.35;;;;;;;18.19;49.87;101767.63;5087349;27;20436;-60
2022/10/23 05:15:23;;;;;;;2.60;2.40;;;;;;;18.33;49.50;101758.66;5046558;28;20868;-61
2022/10/23 05:17:53;;;;;;;2.50;2.30;;;;;;;18.50;49.12;101759.16;5046660;28;20397;-61
2022/10/23 05:20:24;;;;;;;2.50;1.90;;;;;;;18.63;48.83;101755.72;5046367;28;21093;-61
2022/10/23 05:24:00;;;;;;;2.83;2.00;;;;;;;18.83;48.28;101763.91;5077125;27;20407;-61
2022/10/23 05:26:27;;;;;;;2.20;2.00;;;;;;;18.93;48.03;101752.81;5026857;28;20519;-61
2022/10/23 05:31:22;;;;;;;2.50;1.70;;;;;;;19.22;47.28;101765.13;5074571;27;20410;-61
2022/10/23 05:33:48;;;;;;;2.17;1.90;;;;;;;19.38;47.00;101769.31;5026820;28;20901;-61
2022/10/23 05:36:15;;;;;;;2.20;1.80;;;;;;;19.56;46.56;101774.09;5020604;28;20403;-61
2022/10/23 05:38:40;;;;;;;2.00;1.58;;;;;;;19.71;46.22;101784.69;5025442;28;20379;-61
2022/10/23 05:41:06;;;;;;;2.33;1.80;;;;;;;19.79;45.86;101785.34;5019360;28;20383;-61
2022/10/23 05:44:37;;;;;;;2.30;2.10;;;;;;;19.91;45.67;101796.31;5077587;27;20412;-62
2022/10/23 05:47:02;;;;;;;3.97;2.17;;;;;;;20.00;45.37;101808.53;5046611;28;20401;-61
2022/10/23 05:49:28;;;;;;;2.60;2.15;;;;;;;20.12;45.34;101814.16;5039783;28;20390;-62
2022/10/23 05:51:53;;;;;;;3.60;2.10;;;;;;;20.25;45.11;101806.06;5044484;28;20374;-61
2022/10/23 05:54:19;;;;;;;2.47;2.08;;;;;;;20.43;44.86;101810.81;5041391;28;20417;-61
2022/10/23 05:56:44;;;;;;;3.50;2.10;;;;;;;20.51;44.63;101817.88;5046462;28;20392;-62
2022/10/23 05:59:10;;;;;;;2.73;2.13;;;;;;;20.58;44.27;101815.13;5039837;28;20392;-61
2022/10/23 06:01:36;;;;;;;2.28;1.90;;;;;;;20.74;43.96;101822.00;5046640;28;20400;-61
2022/10/23 06:04:03;;;;;;;3.97;2.53;;;;;;;20.92;43.69;101824.88;5039504;28;20416;-62
2022/10/23 06:06:28;;;;;;;4.38;2.20;;;;;;;21.14;43.19;101825.41;5046266;28;20406;-61
2022/10/23 06:08:54;;;;;;;6.23;2.30;;;;;;;21.30;42.74;101823.25;5039358;28;20745;-62
2022/10/23 06:11:19;;;;;;;5.50;2.53;;;;;;;21.50;42.59;101824.03;5046226;28;20381;-61
2022/10/23 06:13:47;;;;;;;4.30;2.20;;;;;;;21.73;42.05;101828.88;5036386;28;20381;-61
2022/10/23 06:16:18;;;;;;;6.30;2.38;;;;;;;21.96;41.48;101827.47;5046478;28;20397;-61
2022/10/23 06:18:47;;;;;;;3.25;2.17;;;;;;;22.14;41.26;101840.22;5041703;28;20393;-61
2022/10/23 06:21:14;;;;;;;2.95;2.40;;;;;;;22.25;40.86;101844.09;5038440;28;20877;-60
2022/10/23 06:25:08;;;;;;;4.30;2.20;;;;;;;22.43;40.32;101856.84;5063391;27;20414;-61
2022/10/23 06:27:33;;;;;;;3.93;2.30;;;;;;;22.36;40.38;101853.38;5026521;28;20403;-61
2022/10/23 06:29:59;;;;;;;3.80;2.28;;;;;;;22.37;40.35;101866.66;5026187;28;20375;-60
2022/10/23 06:32:24;;;;;;;4.57;2.40;;;;;;;22.49;40.04;101854.09;5026064;28;20480;-61
2022/10/23 06:34:50;;;;;;;8.37;2.73;;;;;;;22.60;40.12;101859.81;5025996;28;20770;-60
2022/10/23 06:37:15;;;;;;;10.07;3.53;;;;;;;22.59;39.87;101858.16;5025771;28;20391;-61
2022/10/23 06:39:41;;;;;;;10.30;3.47;;;;;;;22.64;39.90;101867.25;5025868;28;20390;-60
2022/10/23 06:42:06;;;;;;;7.37;2.60;;;;;;;22.78;39.76;101870.66;5026137;28;20751;-60
2022/10/23 06:44:32;;;;;;;4.45;2.33;;;;;;;22.89;39.49;101867.22;5025946;28;20473;-61
2022/10/23 06:46:59;;;;;;;8.60;2.60;;;;;;;22.86;39.47;101869.53;5025572;28;20422;-60
2022/10/23 06:49:25;;;;;;;10.38;3.05;;;;;;;22.87;39.27;101854.97;5025642;28;20384;-60
2022/10/23 06:51:50;;;;;;;18.33;3.77;;;;;;;22.99;39.02;101869.38;5025492;28;20386;-61
2022/10/23 06:54:15;;;;;;;11.80;2.78;;;;;;;23.03;38.78;101862.50;5025895;28;20525;-61
2022/10/23 06:56:41;;;;;;;12.97;3.37;;;;;;;23.09;38.58;101858.09;5025276;28;20511;-62
2022/10/23 06:59:06;;;;;;;8.30;2.40;;;;;;;23.05;38.63;101860.41;5025596;28;20437;-61
2022/10/23 07:01:33;;;;;;;6.88;2.25;;;;;;;23.03;38.35;101854.38;5025809;28;20395;-61
2022/10/23 07:03:58;;;;;;;9.60;2.60;;;;;;;23.13;38.32;101861.16;5025249;28;20427;-61
2022/10/23 07:06:24;;;;;;;13.83;3.50;;;;;;;23.16;38.30;101855.31;5021643;28;20533;-61
2022/10/23 07:08:50;;;;;;;16.02;3.10;;;;;;;23.28;38.22;101857.03;5025077;28;20774;-61
2022/10/23 07:11:15;;;;;;;11.63;2.70;;;;;;;23.42;38.05;101854.16;5026259;28;20379;-60
2022/10/23 07:13:41;;;;;;;11.80;2.63;;;;;;;23.47;37.79;101868.63;5024280;28;20419;-60
2022/10/23 07:16:12;;;;;;;11.85;2.90;;;;;;;23.51;37.53;101876.31;5025046;28;20383;-60
2022/10/23 07:18:38;;;;;;;15.37;3.33;;;;;;;23.55;37.57;101877.50;5025499;28;20937;-58
2022/10/23 07:21:04;;;;;;;5.97;2.33;;;;;;;23.58;37.47;101880.56;5023633;28;20479;-59
2022/10/23 07:24:11;;;;;;;10.30;2.47;;;;;;;23.61;37.14;101872.00;5073664;27;20397;-59
2022/10/23 07:26:37;;;;;;;8.37;2.27;;;;;;;23.72;37.21;101875.00;5026796;28;20768;-59
2022/10/23 07:29:02;;;;;;;11.07;2.90;;;;;;;23.85;37.11;101870.22;5026722;28;20391;-58
2022/10/23 07:31:28;;;;;;;10.93;2.75;;;;;;;23.99;37.61;101868.16;5017781;28;20396;-59
2022/10/23 07:33:54;;;;;;;10.10;2.50;;;;;;;24.17;36.83;101869.97;5020799;28;20522;-58
2022/10/23 07:36:19;;;;;;;9.73;2.63;;;;;;;24.15;36.58;101868.56;5025555;28;20501;-58
2022/10/23 07:38:45;;;;;;;5.57;2.80;;;;;;;24.15;36.41;101861.25;5025740;28;20379;-58
2022/10/23 07:41:11;;;;;;;6.50;2.13;;;;;;;24.26;36.30;101864.22;5024849;28;20434;-59
2022/10/23 07:43:36;;;;;;;3.88;2.00;;;;;;;24.40;35.88;101868.34;5026811;28;20925;-59
2022/10/23 07:46:02;;;;;;;5.43;2.50;;;;;;;24.50;35.71;101863.16;5024297;28;20912;-59
2022/10/23 07:48:28;;;;;;;5.07;2.80;;;;;;;24.52;35.84;101871.88;5025678;28;20793;-58
2022/10/23 07:50:59;;;;;;;5.90;2.83;;;;;;;24.59;35.85;101867.19;5025172;28;20402;-59
2022/10/23 07:53:27;;;;;;;5.78;2.92;;;;;;;24.60;35.83;101876.19;5022709;28;20402;-58
2022/10/23 07:56:01;;;;;;;5.97;2.75;;;;;;;24.69;35.45;101876.66;5025694;28;20395;-58
2022/10/23 07:58:28;;;;;;;7.38;2.10;;;;;;;24.79;35.12;101868.72;5015068;28;20403;-59
2022/10/23 08:00:57;;;;;;;4.05;1.80;;;;;;;24.90;34.76;101880.63;5013880;28;20447;-58
2022/10/23 08:03:24;;;;;;;4.15;2.13;;;;;;;24.92;34.63;101886.63;5025762;28;20779;-58
2022/10/23 08:05:52;;;;;;;6.85;2.60;;;;;;;25.07;34.65;101886.97;5025722;28;20386;-58
2022/10/23 08:08:17;;;;;;;7.10;2.67;;;;;;;25.12;34.35;101892.53;5012225;28;20753;-58
2022/10/23 08:10:45;;;;;;;5.33;2.47;;;;;;;25.08;34.44;101888.59;5026003;28;20387;-58
2022/10/23 08:13:12;;;;;;;4.23;2.10;;;;;;;25.09;34.35;101884.84;5025648;28;20383;-58
2022/10/23 08:15:37;;;;;;;4.32;1.75;;;;;;;25.05;34.09;101880.97;5025842;28;20758;-58
2022/10/23 08:18:03;;;;;;;6.70;2.67;;;;;;;25.03;34.33;101880.38;5024215;28;20389;-58
2022/10/23 08:20:28;;;;;;;12.80;2.50;;;;;;;25.04;34.38;101878.50;5017912;28;20509;-59
2022/10/23 08:22:55;;;;;;;5.15;1.73;;;;;;;25.01;34.51;101882.50;5025282;28;20863;-57
2022/10/23 08:25:21;;;;;;;5.05;1.60;;;;;;;24.98;34.63;101880.28;5025431;28;20852;-58
2022/10/23 08:27:46;;;;;;;13.53;2.13;;;;;;;25.02;34.47;101870.59;5023863;28;20453;-58
2022/10/23 08:30:12;;;;;;;6.97;1.88;;;;;;;24.86;34.50;101874.84;5024961;28;20380;-58
2022/10/23 08:32:37;;;;;;;5.13;1.50;;;;;;;24.71;34.63;101880.75;5024523;28;20765;-58
2022/10/23 08:44:17;;;;;;;4.93;2.05;;;;;;;25.11;35.08;101846.63;4969785;27;116128;-57
2022/10/23 08:47:07;;;;;;;8.10;1.90;;;;;;;25.88;33.66;101820.94;4799721;28;66076;-50
2022/10/23 08:55:03;;;;;;;5.40;1.77;;;;;;;22.55;38.75;101848.84;720503;27;148866511;-80
2022/10/23 08:57:37;;;;;;;8.15;2.60;;;;;;;22.54;38.67;101842.59;4938828;28;20508;-76
2022/10/23 09:00:11;;;;;;;10.82;2.72;;;;;;;22.61;38.91;101837.97;4957812;28;20381;-77
2022/10/23 09:02:41;;;;;;;3.90;1.85;;;;;;;22.67;38.08;101837.09;4965549;28;20384;-66
2022/10/23 09:05:18;;;;;;;22.38;2.53;;;;;;;22.26;38.68;101832.25;4969572;28;20412;-80
2022/10/23 09:08:11;;;;;;;2.70;1.30;;;;;;;21.83;39.45;101836.50;4967898;28;20467;-77
2022/10/23 09:12:00;;;;;;;5.85;1.70;;;;;;;21.92;39.87;101848.69;5140086;27;20369;-77
2022/10/23 09:14:47;;;;;;;1.53;1.40;;;;;;;21.77;39.38;101867.88;4988297;27;74110;-72
2022/10/23 09:17:23;;;;;;;2.05;1.00;;;;;;;21.53;39.56;101860.53;4961614;28;68246;-72
2022/10/23 09:40:28;;;;;;;2.17;1.38;;;;;;;22.17;38.78;101852.47;5102924;27;20407;-76
2022/10/23 09:43:00;;;;;;;1.80;1.40;;;;;;;22.08;38.65;101846.50;4927972;28;20437;-76
2022/10/23 09:45:29;;;;;;;1.42;1.13;;;;;;;22.15;38.34;101842.69;5083700;28;20410;-77
2022/10/23 09:48:11;;;;;;;1.65;1.27;;;;;;;22.25;38.51;101839.50;5090051;28;20922;-77
2022/10/23 09:50:59;;;;;;;3.15;1.60;;;;;;;22.39;38.69;101831.34;5074550;28;20395;-77
2022/10/23 09:53:31;;;;;;;3.05;1.60;;;;;;;22.25;38.45;101834.09;5077137;28;20388;-78
2022/10/23 09:56:01;;;;;;;1.70;1.02;;;;;;;22.14;38.19;101815.91;5092006;28;20380;-77
2022/10/23 09:58:37;;;;;;;1.90;1.30;;;;;;;22.30;37.76;101825.38;5090273;28;20510;-78
2022/10/23 10:01:03;;;;;;;2.13;1.40;;;;;;;22.48;37.35;101814.59;5069847;28;20374;-76
2022/10/23 10:03:29;;;;;;;1.95;1.10;;;;;;;22.44;37.69;101829.63;5091429;28;20361;-77
2022/10/23 10:06:03;;;;;;;2.22;1.15;;;;;;;22.30;37.31;101819.97;5087444;28;20389;-77
2022/10/23 10:08:38;;;;;;;2.05;1.10;;;;;;;22.50;37.10;101812.50;5117997;28;20383;-79
2022/10/23 10:11:09;;;;;;;1.77;1.10;;;;;;;22.65;37.03;101820.28;5092101;28;20394;-77
2022/10/23 10:13:49;;;;;;;3.08;1.10;;;;;;;22.52;37.04;101814.97;5089382;28;20458;-77
2022/10/23 10:16:33;;;;;;;2.60;1.10;;;;;;;22.82;36.61;101809.69;5089405;28;20375;-77
2022/10/23 10:19:21;;;;;;;1.65;1.00;;;;;;;22.85;36.75;101816.50;5089130;28;20400;-77
2022/10/23 10:22:24;;;;;;;2.40;1.25;;;;;;;22.99;36.87;101801.78;5081211;28;20369;-78
2022/10/23 10:25:08;;;;;;;1.27;1.00;;;;;;;23.06;36.62;101807.97;5074898;28;20364;-78
2022/10/23 10:27:51;;;;;;;1.70;1.17;;;;;;;23.09;36.37;101801.28;5085928;28;20472;-77
2022/10/23 10:30:22;;;;;;;1.50;1.20;;;;;;;23.01;36.84;101805.09;5059861;27;20412;-77
2022/10/23 10:33:01;;;;;;;2.20;1.20;;;;;;;23.19;36.15;101806.16;5070682;28;20388;-78
2022/10/23 10:35:58;;;;;;;2.08;1.05;;;;;;;23.04;35.39;101783.03;5089169;28;20372;-78
2022/10/23 10:38:39;;;;;;;3.60;1.05;;;;;;;22.89;35.30;101794.22;5070946;28;20513;-79
2022/10/23 10:41:49;;;;;;;1.40;1.05;;;;;;;23.06;35.11;101791.75;5080192;28;20380;-77
2022/10/23 10:44:49;;;;;;;1.75;1.05;;;;;;;23.17;35.60;101794.75;5078732;28;20372;-78
2022/10/23 10:47:24;;;;;;;2.83;0.98;;;;;;;23.38;35.04;101779.91;5089418;28;20348;-79
2022/10/23 10:50:27;;;;;;;1.10;0.80;;;;;;;23.36;34.59;101785.53;5085847;28;20449;-78
2022/10/23 10:53:02;;;;;;;1.85;0.90;;;;;;;23.20;34.85;101788.88;5074456;28;20456;-79
2022/10/23 10:55:40;;;;;;;1.30;1.10;;;;;;;23.35;34.76;101785.75;5076443;28;20365;-79
2022/10/23 10:58:30;;;;;;;1.35;0.90;;;;;;;23.37;34.57;101770.97;5071023;28;20410;-76
2022/10/23 11:01:00;;;;;;;1.70;1.00;;;;;;;23.34;34.20;101784.94;5055904;28;20412;-78
2022/10/23 11:03:47;;;;;;;1.73;1.02;;;;;;;23.61;34.02;101777.28;5059853;28;20404;-77
2022/10/23 11:06:17;;;;;;;1.00;0.80;;;;;;;23.59;33.63;101773.97;5077623;28;20388;-78
2022/10/23 11:08:47;;;;;;;1.10;1.00;;;;;;;23.56;33.93;101770.91;5091994;28;20372;-79
2022/10/23 11:11:48;;;;;;;1.98;0.80;;;;;;;23.79;33.84;101762.00;5075976;28;20450;-78
2022/10/23 11:14:21;;;;;;;1.67;0.80;;;;;;;23.79;33.49;101770.97;5065366;28;20366;-77
2022/10/23 11:16:51;;;;;;;1.15;1.05;;;;;;;23.87;33.95;101764.41;5089736;28;20467;-77
2022/10/23 11:19:24;;;;;;;1.20;0.90;;;;;;;23.63;33.40;101766.22;5075607;28;20420;-77
2022/10/23 11:21:58;;;;;;;1.40;0.88;;;;;;;23.67;33.60;101756.56;5076209;28;20367;-78
2022/10/23 11:25:01;;;;;;;1.25;1.10;;;;;;;23.75;33.81;101760.81;5073219;28;20390;-78
2022/10/23 11:27:41;;;;;;;1.45;1.00;;;;;;;23.80;33.32;101740.13;5063187;28;20399;-77
2022/10/23 11:30:34;;;;;;;2.17;0.98;;;;;;;23.77;32.88;101745.16;5076659;28;20449;-77
2022/10/23 11:33:00;;;;;;;1.23;0.90;;;;;;;23.66;33.11;101744.09;5074995;28;20459;-78
2022/10/23 11:35:59;;;;;;;1.03;0.83;;;;;;;23.75;32.80;101737.28;5075740;28;20420;-77
2022/10/23 11:38:32;;;;;;;0.90;0.80;;;;;;;23.80;32.48;101733.91;5060411;28;20421;-76
2022/10/23 11:41:02;;;;;;;1.13;0.70;;;;;;;23.71;32.53;101732.56;5074510;28;20408;-76
2022/10/23 11:43:46;;;;;;;1.30;1.00;;;;;;;23.70;32.60;101729.03;5091795;28;20442;-77
2022/10/23 11:46:40;;;;;;;1.42;1.20;;;;;;;23.94;32.38;101729.91;5076803;28;20455;-78
2022/10/23 11:49:20;;;;;;;1.10;0.80;;;;;;;23.80;31.97;101718.47;5070419;28;20496;-77
2022/10/23 11:52:02;;;;;;;0.87;0.73;;;;;;;23.88;31.94;101714.63;5068936;28;20415;-78
2022/10/23 11:54:31;;;;;;;1.60;0.80;;;;;;;24.00;31.50;101704.59;5077013;28;20404;-77
2022/10/23 11:57:14;;;;;;;2.83;0.80;;;;;;;23.93;31.81;101709.31;5075981;28;20420;-78
2022/10/23 11:59:49;;;;;;;1.42;0.80;;;;;;;24.03;31.70;101708.72;5074628;28;20412;-78
2022/10/23 12:02:30;;;;;;;2.17;1.10;;;;;;;24.12;31.45;101698.34;5074228;28;20407;-78
2022/10/23 12:05:02;;;;;;;0.73;0.70;;;;;;;24.08;31.64;101700.72;5075400;28;20373;-77
2022/10/23 12:07:33;;;;;;;2.20;0.80;;;;;;;24.09;31.30;101688.78;5060451;28;20389;-78
2022/10/23 12:10:23;;;;;;;0.80;0.80;;;;;;;24.22;31.24;101688.56;5075912;28;20381;-78
2022/10/23 12:13:32;;;;;;;1.10;0.75;;;;;;;24.13;31.34;101690.00;5062319;28;20392;-78
2022/10/23 12:15:59;;;;;;;1.63;1.23;;;;;;;24.13;31.45;101683.72;5056156;28;20402;-78
2022/10/23 12:18:26;;;;;;;1.83;0.73;;;;;;;24.27;31.08;101670.75;5054537;28;20424;-78
2022/10/23 12:21:03;;;;;;;2.80;0.77;;;;;;;24.39;30.93;101668.88;5055025;28;20412;-78
2022/10/23 12:23:59;;;;;;;1.35;0.90;;;;;;;24.39;30.82;101668.88;5022736;28;20387;-78
2022/10/23 12:26:58;;;;;;;1.52;1.13;;;;;;;24.57;30.87;101667.91;5042417;28;20413;-78
2022/10/23 12:29:30;;;;;;;1.83;1.40;;;;;;;24.46;30.92;101664.13;5037268;28;20381;-78
2022/10/23 12:32:24;;;;;;;2.28;1.33;;;;;;;24.38;30.64;101664.50;5052752;28;20507;-76
2022/10/23 12:35:22;;;;;;;3.28;2.40;;;;;;;24.51;30.75;101666.13;5033459;28;20452;-78
2022/10/23 12:37:56;;;;;;;1.95;1.30;;;;;;;24.52;30.65;101660.44;5032813;28;20384;-77
2022/10/23 12:40:28;;;;;;;1.33;1.00;;;;;;;24.67;30.60;101662.69;5038194;28;20405;-78
2022/10/23 12:42:55;;;;;;;2.10;0.80;;;;;;;24.44;30.09;101660.84;5053460;28;20387;-77
2022/10/23 12:45:28;;;;;;;1.13;0.95;;;;;;;24.41;30.55;101659.41;5036824;28;20386;-79
2022/10/23 12:47:57;;;;;;;1.33;1.23;;;;;;;24.50;30.52;101657.16;5070253;28;20414;-78
2022/10/23 12:50:33;;;;;;;2.10;1.50;;;;;;;24.78;30.13;101664.53;5075176;28;20368;-79
2022/10/23 12:53:03;;;;;;;2.60;1.80;;;;;;;24.72;30.16;101662.78;5074471;28;20404;-78
2022/10/23 12:55:45;;;;;;;2.33;1.50;;;;;;;24.76;29.74;101668.56;5056504;28;20387;-78
2022/10/23 12:58:24;;;;;;;3.33;1.95;;;;;;;24.58;29.98;101664.97;5055684;28;20430;-78
2022/10/23 13:01:03;;;;;;;2.47;1.40;;;;;;;24.84;30.29;101670.88;5075902;28;20455;-79
2022/10/23 13:03:32;;;;;;;1.90;1.00;;;;;;;24.57;30.02;101668.72;5074691;28;20388;-77
2022/10/23 13:06:02;;;;;;;0.95;0.80;;;;;;;24.48;30.00;101663.91;5074389;28;20417;-79
2022/10/23 13:08:39;;;;;;;4.40;2.10;;;;;;;24.60;30.23;101665.53;5073608;28;20384;-79
2022/10/23 13:11:05;;;;;;;1.25;1.08;;;;;;;24.41;29.96;101653.19;5061884;28;20453;-78
2022/10/23 13:13:31;;;;;;;1.67;1.48;;;;;;;24.60;30.10;101668.25;5039832;28;20392;-77
2022/10/23 13:15:57;;;;;;;1.63;1.33;;;;;;;24.68;29.84;101664.31;5063252;28;20462;-78
2022/10/23 13:18:22;;;;;;;1.43;1.00;;;;;;;24.43;29.97;101662.75;5070502;28;20405;-77
2022/10/23 13:20:50;;;;;;;1.80;1.30;;;;;;;24.57;29.97;101662.47;5075453;28;20907;-78
2022/10/23 13:23:32;;;;;;;1.52;0.70;;;;;;;24.40;29.26;101675.94;5075301;28;20395;-78
2022/10/23 13:26:23;;;;;;;0.80;0.70;;;;;;;24.34;29.58;101661.44;5075295;28;20416;-78
2022/10/23 13:28:50;;;;;;;1.35;0.70;;;;;;;24.37;29.22;101666.38;5073741;28;20392;-80
2022/10/23 13:31:16;;;;;;;2.83;1.70;;;;;;;24.68;29.31;101671.63;5054180;28;20381;-78
2022/10/23 13:33:45;;;;;;;2.35;1.00;;;;;;;24.56;29.22;101663.53;5061164;28;20848;-78
2022/10/23 13:36:12;;;;;;;1.13;0.60;;;;;;;24.48;29.05;101669.31;5073834;28;20376;-77
2022/10/23 13:38:48;;;;;;;0.73;0.70;;;;;;;24.39;29.10;101663.44;5034040;28;20786;-78
2022/10/23 13:41:18;;;;;;;4.72;0.80;;;;;;;24.21;29.33;101662.53;5086765;28;20390;-79
2022/10/23 13:43:50;;;;;;;1.73;0.80;;;;;;;24.42;29.32;101677.34;5039101;28;20421;-77
2022/10/23 13:46:24;;;;;;;1.88;0.90;;;;;;;24.39;29.28;101672.38;5054456;28;20421;-78
2022/10/23 13:48:55;;;;;;;1.02;0.90;;;;;;;24.27;29.51;101674.28;5086563;28;20370;-78
2022/10/23 13:51:27;;;;;;;1.88;0.80;;;;;;;24.37;29.34;101677.22;5065787;28;20479;-78